sensor_id;sensor_type;location;lat;lon;timestamp;P1;durP1;ratioP1;P2;durP2;ratioP2
40314;SDS011;26021;45.640;11.302;2023-08-06T00:01:25;1.40;;;1.30;;
40314;SDS011;26021;45.640;11.302;2023-08-06T00:03:51;1.45;;;1.20;;
40314;SDS011;26021;45.640;11.302;2023-08-06T00:06:16;3.95;;;1.40;;
40314;SDS011;26021;45.640;11.302;2023-08-06T00:08:42;1.25;;;1.00;;
40314;SDS011;26021;45.640;11.302;2023-08-06T00:11:07;2.63;;;1.10;;
40314;SDS011;26021;45.640;11.302;2023-08-06T00:13:33;1.85;;;1.20;;
40314;SDS011;26021;45.640;11.302;2023-08-06T00:16:11;2.53;;;1.27;;
40314;SDS011;26021;45.640;11.302;2023-08-06T00:18:38;4.72;;;1.33;;
40314;SDS011;26021;45.640;11.302;2023-08-06T00:21:04;1.17;;;1.17;;
40314;SDS011;26021;45.640;11.302;2023-08-06T00:23:29;4.45;;;1.27;;
40314;SDS011;26021;45.640;11.302;2023-08-06T00:25:55;1.90;;;1.05;;
40314;SDS011;26021;45.640;11.302;2023-08-06T00:28:20;4.40;;;1.33;;
40314;SDS011;26021;45.640;11.302;2023-08-06T00:30:45;2.58;;;1.17;;
40314;SDS011;26021;45.640;11.302;2023-08-06T00:33:11;2.50;;;1.13;;
40314;SDS011;26021;45.640;11.302;2023-08-06T00:35:36;4.22;;;1.10;;
40314;SDS011;26021;45.640;11.302;2023-08-06T00:38:02;2.83;;;1.30;;
40314;SDS011;26021;45.640;11.302;2023-08-06T00:40:27;1.75;;;1.08;;
40314;SDS011;26021;45.640;11.302;2023-08-06T00:42:56;3.10;;;1.10;;
40314;SDS011;26021;45.640;11.302;2023-08-06T00:45:21;2.60;;;1.30;;
40314;SDS011;26021;45.640;11.302;2023-08-06T00:47:48;1.63;;;1.13;;
40314;SDS011;26021;45.640;11.302;2023-08-06T00:50:13;4.85;;;1.13;;
40314;SDS011;26021;45.640;11.302;2023-08-06T00:52:39;2.17;;;1.40;;
40314;SDS011;26021;45.640;11.302;2023-08-06T00:55:06;2.13;;;0.90;;
40314;SDS011;26021;45.640;11.302;2023-08-06T00:57:32;4.45;;;0.93;;
40314;SDS011;26021;45.640;11.302;2023-08-06T00:59:57;1.30;;;0.85;;
40314;SDS011;26021;45.640;11.302;2023-08-06T01:02:23;6.68;;;1.05;;
40314;SDS011;26021;45.640;11.302;2023-08-06T01:04:48;2.72;;;1.05;;
40314;SDS011;26021;45.640;11.302;2023-08-06T01:12:59;2.83;;;0.90;;
40314;SDS011;26021;45.640;11.302;2023-08-06T01:15:38;3.10;;;1.20;;
40314;SDS011;26021;45.640;11.302;2023-08-06T01:18:08;2.60;;;1.00;;
40314;SDS011;26021;45.640;11.302;2023-08-06T01:20:35;4.15;;;1.00;;
40314;SDS011;26021;45.640;11.302;2023-08-06T01:23:00;1.63;;;1.45;;
40314;SDS011;26021;45.640;11.302;2023-08-06T01:25:28;2.70;;;0.90;;
40314;SDS011;26021;45.640;11.302;2023-08-06T01:28:00;1.75;;;1.10;;
40314;SDS011;26021;45.640;11.302;2023-08-06T01:30:31;3.08;;;0.95;;
40314;SDS011;26021;45.640;11.302;2023-08-06T01:33:02;1.83;;;0.90;;
40314;SDS011;26021;45.640;11.302;2023-08-06T01:35:30;3.25;;;0.93;;
40314;SDS011;26021;45.640;11.302;2023-08-06T01:37:58;1.50;;;0.90;;
40314;SDS011;26021;45.640;11.302;2023-08-06T01:40:24;3.33;;;1.00;;
40314;SDS011;26021;45.640;11.302;2023-08-06T01:42:52;2.42;;;0.88;;
40314;SDS011;26021;45.640;11.302;2023-08-06T01:45:17;1.63;;;1.00;;
40314;SDS011;26021;45.640;11.302;2023-08-06T01:47:43;1.00;;;1.00;;
40314;SDS011;26021;45.640;11.302;2023-08-06T01:50:08;5.43;;;0.80;;
40314;SDS011;26021;45.640;11.302;2023-08-06T01:52:34;2.90;;;1.00;;
40314;SDS011;26021;45.640;11.302;2023-08-06T01:54:59;0.80;;;0.70;;
40314;SDS011;26021;45.640;11.302;2023-08-06T01:57:24;3.40;;;1.00;;
40314;SDS011;26021;45.640;11.302;2023-08-06T01:59:50;5.40;;;0.93;;
40314;SDS011;26021;45.640;11.302;2023-08-06T02:02:15;1.08;;;0.73;;
40314;SDS011;26021;45.640;11.302;2023-08-06T02:04:41;3.33;;;0.90;;
40314;SDS011;26021;45.640;11.302;2023-08-06T02:07:06;1.77;;;0.80;;
40314;SDS011;26021;45.640;11.302;2023-08-06T02:09:32;1.92;;;0.77;;
40314;SDS011;26021;45.640;11.302;2023-08-06T02:11:57;1.48;;;0.70;;
40314;SDS011;26021;45.640;11.302;2023-08-06T02:14:23;2.78;;;0.85;;
40314;SDS011;26021;45.640;11.302;2023-08-06T02:16:48;2.92;;;0.75;;
40314;SDS011;26021;45.640;11.302;2023-08-06T02:19:14;2.88;;;0.90;;
40314;SDS011;26021;45.640;11.302;2023-08-06T02:21:41;0.82;;;0.50;;
40314;SDS011;26021;45.640;11.302;2023-08-06T02:24:06;0.95;;;0.70;;
40314;SDS011;26021;45.640;11.302;2023-08-06T02:26:32;1.15;;;0.60;;
40314;SDS011;26021;45.640;11.302;2023-08-06T02:28:57;0.80;;;0.80;;
40314;SDS011;26021;45.640;11.302;2023-08-06T02:31:22;1.55;;;0.70;;
40314;SDS011;26021;45.640;11.302;2023-08-06T02:33:48;1.17;;;0.70;;
40314;SDS011;26021;45.640;11.302;2023-08-06T02:36:13;1.00;;;0.60;;
40314;SDS011;26021;45.640;11.302;2023-08-06T02:38:39;3.03;;;0.77;;
40314;SDS011;26021;45.640;11.302;2023-08-06T02:41:04;0.70;;;0.70;;
40314;SDS011;26021;45.640;11.302;2023-08-06T02:43:30;5.75;;;1.27;;
40314;SDS011;26021;45.640;11.302;2023-08-06T02:45:59;3.25;;;0.80;;
40314;SDS011;26021;45.640;11.302;2023-08-06T02:48:25;0.70;;;0.70;;
40314;SDS011;26021;45.640;11.302;2023-08-06T02:50:50;2.38;;;0.70;;
40314;SDS011;26021;45.640;11.302;2023-08-06T02:53:16;1.73;;;0.60;;
40314;SDS011;26021;45.640;11.302;2023-08-06T02:55:45;3.10;;;0.82;;
40314;SDS011;26021;45.640;11.302;2023-08-06T02:58:12;1.25;;;0.70;;
40314;SDS011;26021;45.640;11.302;2023-08-06T03:00:38;5.03;;;0.80;;
40314;SDS011;26021;45.640;11.302;2023-08-06T03:03:03;2.70;;;0.60;;
40314;SDS011;26021;45.640;11.302;2023-08-06T03:05:29;1.55;;;0.70;;
40314;SDS011;26021;45.640;11.302;2023-08-06T03:07:54;3.55;;;0.60;;
40314;SDS011;26021;45.640;11.302;2023-08-06T03:10:20;1.85;;;0.80;;
40314;SDS011;26021;45.640;11.302;2023-08-06T03:12:45;3.55;;;0.80;;
40314;SDS011;26021;45.640;11.302;2023-08-06T03:15:11;2.15;;;0.80;;
40314;SDS011;26021;45.640;11.302;2023-08-06T03:17:36;2.55;;;0.70;;
40314;SDS011;26021;45.640;11.302;2023-08-06T03:20:02;3.75;;;0.90;;
40314;SDS011;26021;45.640;11.302;2023-08-06T03:22:27;1.45;;;0.90;;
40314;SDS011;26021;45.640;11.302;2023-08-06T03:24:53;1.67;;;0.85;;
40314;SDS011;26021;45.640;11.302;2023-08-06T03:27:18;2.03;;;0.70;;
40314;SDS011;26021;45.640;11.302;2023-08-06T03:29:43;0.63;;;0.63;;
40314;SDS011;26021;45.640;11.302;2023-08-06T03:32:09;3.63;;;0.80;;
40314;SDS011;26021;45.640;11.302;2023-08-06T03:34:34;1.10;;;0.70;;
40314;SDS011;26021;45.640;11.302;2023-08-06T03:37:00;0.70;;;0.60;;
40314;SDS011;26021;45.640;11.302;2023-08-06T03:39:25;3.67;;;0.77;;
40314;SDS011;26021;45.640;11.302;2023-08-06T03:41:50;0.77;;;0.70;;
40314;SDS011;26021;45.640;11.302;2023-08-06T03:44:16;1.10;;;0.70;;
40314;SDS011;26021;45.640;11.302;2023-08-06T03:46:41;1.90;;;0.70;;
40314;SDS011;26021;45.640;11.302;2023-08-06T03:49:07;1.42;;;0.52;;
40314;SDS011;26021;45.640;11.302;2023-08-06T03:51:32;1.23;;;0.70;;
40314;SDS011;26021;45.640;11.302;2023-08-06T03:53:57;0.70;;;0.70;;
40314;SDS011;26021;45.640;11.302;2023-08-06T03:56:23;1.35;;;1.17;;
40314;SDS011;26021;45.640;11.302;2023-08-06T03:58:48;4.60;;;0.80;;
40314;SDS011;26021;45.640;11.302;2023-08-06T04:01:14;0.93;;;0.47;;
40314;SDS011;26021;45.640;11.302;2023-08-06T04:03:40;3.00;;;0.70;;
40314;SDS011;26021;45.640;11.302;2023-08-06T04:06:06;2.92;;;0.90;;
40314;SDS011;26021;45.640;11.302;2023-08-06T04:08:33;5.07;;;0.75;;
40314;SDS011;26021;45.640;11.302;2023-08-06T04:10:58;0.90;;;0.63;;
40314;SDS011;26021;45.640;11.302;2023-08-06T04:13:24;0.80;;;0.68;;
40314;SDS011;26021;45.640;11.302;2023-08-06T04:15:49;0.47;;;0.43;;
40314;SDS011;26021;45.640;11.302;2023-08-06T04:18:14;2.42;;;0.70;;
40314;SDS011;26021;45.640;11.302;2023-08-06T04:20:46;1.02;;;0.55;;
40314;SDS011;26021;45.640;11.302;2023-08-06T04:23:14;0.50;;;0.50;;
40314;SDS011;26021;45.640;11.302;2023-08-06T04:25:40;1.55;;;0.40;;
40314;SDS011;26021;45.640;11.302;2023-08-06T04:28:05;1.77;;;0.50;;
40314;SDS011;26021;45.640;11.302;2023-08-06T04:30:31;0.73;;;0.50;;
40314;SDS011;26021;45.640;11.302;2023-08-06T04:32:57;1.38;;;0.63;;
40314;SDS011;26021;45.640;11.302;2023-08-06T04:35:23;0.98;;;0.63;;
40314;SDS011;26021;45.640;11.302;2023-08-06T04:37:48;0.70;;;0.63;;
40314;SDS011;26021;45.640;11.302;2023-08-06T04:40:14;1.42;;;0.98;;
40314;SDS011;26021;45.640;11.302;2023-08-06T04:42:39;1.20;;;0.70;;
40314;SDS011;26021;45.640;11.302;2023-08-06T04:45:05;0.63;;;0.60;;
40314;SDS011;26021;45.640;11.302;2023-08-06T04:47:31;0.50;;;0.50;;
40314;SDS011;26021;45.640;11.302;2023-08-06T04:49:56;1.42;;;0.45;;
40314;SDS011;26021;45.640;11.302;2023-08-06T04:52:21;0.95;;;0.88;;
40314;SDS011;26021;45.640;11.302;2023-08-06T04:54:47;2.72;;;0.63;;
40314;SDS011;26021;45.640;11.302;2023-08-06T04:57:12;2.28;;;0.65;;
40314;SDS011;26021;45.640;11.302;2023-08-06T04:59:38;1.60;;;0.70;;
40314;SDS011;26021;45.640;11.302;2023-08-06T05:02:04;0.80;;;0.60;;
40314;SDS011;26021;45.640;11.302;2023-08-06T05:04:29;1.48;;;0.63;;
40314;SDS011;26021;45.640;11.302;2023-08-06T05:06:55;1.10;;;0.65;;
40314;SDS011;26021;45.640;11.302;2023-08-06T05:09:20;0.70;;;0.70;;
40314;SDS011;26021;45.640;11.302;2023-08-06T05:11:46;0.70;;;0.68;;
40314;SDS011;26021;45.640;11.302;2023-08-06T05:14:12;2.78;;;0.93;;
40314;SDS011;26021;45.640;11.302;2023-08-06T05:16:37;2.10;;;0.68;;
40314;SDS011;26021;45.640;11.302;2023-08-06T05:19:03;5.13;;;0.98;;
40314;SDS011;26021;45.640;11.302;2023-08-06T05:21:28;1.02;;;0.80;;
40314;SDS011;26021;45.640;11.302;2023-08-06T05:23:54;1.67;;;0.60;;
40314;SDS011;26021;45.640;11.302;2023-08-06T05:26:19;1.65;;;0.70;;
40314;SDS011;26021;45.640;11.302;2023-08-06T05:28:45;0.70;;;0.70;;
40314;SDS011;26021;45.640;11.302;2023-08-06T05:31:10;2.50;;;0.80;;
40314;SDS011;26021;45.640;11.302;2023-08-06T05:33:36;1.55;;;0.70;;
40314;SDS011;26021;45.640;11.302;2023-08-06T05:36:01;0.95;;;0.70;;
40314;SDS011;26021;45.640;11.302;2023-08-06T05:38:27;1.25;;;0.80;;
40314;SDS011;26021;45.640;11.302;2023-08-06T05:40:52;1.40;;;0.70;;
40314;SDS011;26021;45.640;11.302;2023-08-06T05:43:18;6.65;;;1.10;;
40314;SDS011;26021;45.640;11.302;2023-08-06T05:45:46;1.83;;;0.80;;
40314;SDS011;26021;45.640;11.302;2023-08-06T05:48:14;1.55;;;0.80;;
40314;SDS011;26021;45.640;11.302;2023-08-06T05:50:39;1.23;;;0.75;;
40314;SDS011;26021;45.640;11.302;2023-08-06T05:53:04;1.70;;;0.77;;
40314;SDS011;26021;45.640;11.302;2023-08-06T05:55:30;1.65;;;0.95;;
40314;SDS011;26021;45.640;11.302;2023-08-06T05:57:57;2.20;;;0.82;;
40314;SDS011;26021;45.640;11.302;2023-08-06T06:00:22;0.68;;;0.68;;
40314;SDS011;26021;45.640;11.302;2023-08-06T06:02:48;2.45;;;0.90;;
40314;SDS011;26021;45.640;11.302;2023-08-06T06:05:13;1.15;;;1.00;;
40314;SDS011;26021;45.640;11.302;2023-08-06T06:07:39;0.70;;;0.70;;
40314;SDS011;26021;45.640;11.302;2023-08-06T06:10:04;1.35;;;1.20;;
40314;SDS011;26021;45.640;11.302;2023-08-06T06:12:30;5.07;;;0.85;;
40314;SDS011;26021;45.640;11.302;2023-08-06T06:14:56;1.20;;;0.80;;
40314;SDS011;26021;45.640;11.302;2023-08-06T06:17:21;1.02;;;0.88;;
40314;SDS011;26021;45.640;11.302;2023-08-06T06:19:47;3.03;;;0.95;;
40314;SDS011;26021;45.640;11.302;2023-08-06T06:22:13;1.48;;;0.90;;
40314;SDS011;26021;45.640;11.302;2023-08-06T06:24:39;2.05;;;0.75;;
40314;SDS011;26021;45.640;11.302;2023-08-06T06:27:04;2.33;;;0.80;;
40314;SDS011;26021;45.640;11.302;2023-08-06T06:29:30;4.70;;;0.70;;
40314;SDS011;26021;45.640;11.302;2023-08-06T06:31:55;2.17;;;0.70;;
40314;SDS011;26021;45.640;11.302;2023-08-06T06:34:21;2.13;;;0.80;;
40314;SDS011;26021;45.640;11.302;2023-08-06T06:36:47;3.25;;;1.05;;
40314;SDS011;26021;45.640;11.302;2023-08-06T06:39:12;0.80;;;0.80;;
40314;SDS011;26021;45.640;11.302;2023-08-06T06:41:38;1.95;;;0.80;;
40314;SDS011;26021;45.640;11.302;2023-08-06T06:44:03;2.20;;;0.77;;
40314;SDS011;26021;45.640;11.302;2023-08-06T06:46:30;4.78;;;0.75;;
40314;SDS011;26021;45.640;11.302;2023-08-06T06:48:56;1.60;;;0.93;;
40314;SDS011;26021;45.640;11.302;2023-08-06T06:51:21;2.47;;;0.93;;
40314;SDS011;26021;45.640;11.302;2023-08-06T06:53:47;2.20;;;1.10;;
40314;SDS011;26021;45.640;11.302;2023-08-06T06:56:13;0.93;;;0.82;;
40314;SDS011;26021;45.640;11.302;2023-08-06T06:58:38;1.30;;;0.82;;
40314;SDS011;26021;45.640;11.302;2023-08-06T07:01:07;1.67;;;1.00;;
40314;SDS011;26021;45.640;11.302;2023-08-06T07:03:32;1.05;;;0.80;;
40314;SDS011;26021;45.640;11.302;2023-08-06T07:05:58;1.95;;;0.80;;
40314;SDS011;26021;45.640;11.302;2023-08-06T07:08:24;1.10;;;0.60;;
40314;SDS011;26021;45.640;11.302;2023-08-06T07:10:50;1.08;;;0.98;;
40314;SDS011;26021;45.640;11.302;2023-08-06T07:13:15;1.13;;;0.60;;
40314;SDS011;26021;45.640;11.302;2023-08-06T07:15:41;3.08;;;0.80;;
40314;SDS011;26021;45.640;11.302;2023-08-06T07:18:07;1.75;;;0.80;;
40314;SDS011;26021;45.640;11.302;2023-08-06T07:20:33;1.00;;;0.90;;
40314;SDS011;26021;45.640;11.302;2023-08-06T07:22:59;1.75;;;0.85;;
40314;SDS011;26021;45.640;11.302;2023-08-06T07:25:25;3.17;;;1.10;;
40314;SDS011;26021;45.640;11.302;2023-08-06T07:27:51;1.13;;;0.88;;
40314;SDS011;26021;45.640;11.302;2023-08-06T07:30:16;2.30;;;1.00;;
40314;SDS011;26021;45.640;11.302;2023-08-06T07:32:42;0.85;;;0.85;;
40314;SDS011;26021;45.640;11.302;2023-08-06T07:35:07;1.55;;;1.10;;
40314;SDS011;26021;45.640;11.302;2023-08-06T07:37:37;1.65;;;1.00;;
40314;SDS011;26021;45.640;11.302;2023-08-06T07:40:03;1.05;;;1.05;;
40314;SDS011;26021;45.640;11.302;2023-08-06T07:42:29;1.63;;;1.52;;
40314;SDS011;26021;45.640;11.302;2023-08-06T07:44:55;3.40;;;2.63;;
40314;SDS011;26021;45.640;11.302;2023-08-06T07:47:24;2.78;;;1.20;;
40314;SDS011;26021;45.640;11.302;2023-08-06T07:49:49;3.10;;;0.98;;
40314;SDS011;26021;45.640;11.302;2023-08-06T07:52:15;3.30;;;1.40;;
40314;SDS011;26021;45.640;11.302;2023-08-06T07:54:40;2.95;;;0.82;;
40314;SDS011;26021;45.640;11.302;2023-08-06T07:57:06;1.23;;;1.10;;
40314;SDS011;26021;45.640;11.302;2023-08-06T07:59:32;1.60;;;1.33;;
40314;SDS011;26021;45.640;11.302;2023-08-06T08:01:57;1.95;;;1.02;;
40314;SDS011;26021;45.640;11.302;2023-08-06T08:04:23;3.35;;;1.20;;
40314;SDS011;26021;45.640;11.302;2023-08-06T08:06:49;1.50;;;0.93;;
40314;SDS011;26021;45.640;11.302;2023-08-06T08:09:14;1.15;;;1.15;;
40314;SDS011;26021;45.640;11.302;2023-08-06T08:11:40;1.65;;;1.10;;
40314;SDS011;26021;45.640;11.302;2023-08-06T08:14:06;1.42;;;1.00;;
40314;SDS011;26021;45.640;11.302;2023-08-06T08:16:32;2.58;;;1.40;;
40314;SDS011;26021;45.640;11.302;2023-08-06T08:18:57;1.67;;;1.10;;
40314;SDS011;26021;45.640;11.302;2023-08-06T08:21:23;1.08;;;0.98;;
40314;SDS011;26021;45.640;11.302;2023-08-06T08:23:51;1.20;;;1.02;;
40314;SDS011;26021;45.640;11.302;2023-08-06T08:26:17;2.38;;;1.15;;
40314;SDS011;26021;45.640;11.302;2023-08-06T08:28:42;2.42;;;1.00;;
40314;SDS011;26021;45.640;11.302;2023-08-06T08:31:08;2.05;;;1.20;;
40314;SDS011;26021;45.640;11.302;2023-08-06T08:33:34;1.25;;;1.15;;
40314;SDS011;26021;45.640;11.302;2023-08-06T08:36:00;1.23;;;1.13;;
40314;SDS011;26021;45.640;11.302;2023-08-06T08:38:25;1.50;;;1.40;;
40314;SDS011;26021;45.640;11.302;2023-08-06T08:40:51;0.95;;;0.88;;
40314;SDS011;26021;45.640;11.302;2023-08-06T08:43:20;1.58;;;1.30;;
40314;SDS011;26021;45.640;11.302;2023-08-06T08:45:47;1.30;;;1.20;;
40314;SDS011;26021;45.640;11.302;2023-08-06T08:48:16;1.00;;;0.95;;
40314;SDS011;26021;45.640;11.302;2023-08-06T08:50:44;1.10;;;1.10;;
40314;SDS011;26021;45.640;11.302;2023-08-06T08:53:10;1.58;;;1.33;;
40314;SDS011;26021;45.640;11.302;2023-08-06T08:55:37;1.20;;;1.10;;
40314;SDS011;26021;45.640;11.302;2023-08-06T08:58:03;1.05;;;1.05;;
40314;SDS011;26021;45.640;11.302;2023-08-06T09:00:28;3.03;;;1.20;;
40314;SDS011;26021;45.640;11.302;2023-08-06T09:02:54;2.47;;;1.25;;
40314;SDS011;26021;45.640;11.302;2023-08-06T09:05:20;2.38;;;1.55;;
40314;SDS011;26021;45.640;11.302;2023-08-06T09:07:48;2.42;;;1.38;;
40314;SDS011;26021;45.640;11.302;2023-08-06T09:10:14;2.45;;;1.40;;
40314;SDS011;26021;45.640;11.302;2023-08-06T09:12:43;2.42;;;1.30;;
40314;SDS011;26021;45.640;11.302;2023-08-06T09:15:09;3.83;;;1.27;;
40314;SDS011;26021;45.640;11.302;2023-08-06T09:17:36;2.03;;;1.23;;
40314;SDS011;26021;45.640;11.302;2023-08-06T09:20:11;1.67;;;1.30;;
40314;SDS011;26021;45.640;11.302;2023-08-06T09:22:37;2.08;;;1.23;;
40314;SDS011;26021;45.640;11.302;2023-08-06T09:25:03;2.30;;;1.50;;
40314;SDS011;26021;45.640;11.302;2023-08-06T09:27:34;1.50;;;1.13;;
40314;SDS011;26021;45.640;11.302;2023-08-06T09:30:00;1.95;;;1.30;;
40314;SDS011;26021;45.640;11.302;2023-08-06T09:32:25;2.15;;;1.40;;
40314;SDS011;26021;45.640;11.302;2023-08-06T09:34:54;1.48;;;1.30;;
40314;SDS011;26021;45.640;11.302;2023-08-06T09:37:21;3.95;;;1.60;;
40314;SDS011;26021;45.640;11.302;2023-08-06T09:39:47;2.58;;;1.35;;
40314;SDS011;26021;45.640;11.302;2023-08-06T09:42:14;1.30;;;1.20;;
40314;SDS011;26021;45.640;11.302;2023-08-06T09:44:40;1.98;;;1.58;;
40314;SDS011;26021;45.640;11.302;2023-08-06T09:47:06;5.47;;;1.60;;
40314;SDS011;26021;45.640;11.302;2023-08-06T09:51:57;4.35;;;1.60;;
40314;SDS011;26021;45.640;11.302;2023-08-06T09:54:25;5.30;;;1.27;;
40314;SDS011;26021;45.640;11.302;2023-08-06T09:56:52;1.40;;;1.30;;
40314;SDS011;26021;45.640;11.302;2023-08-06T09:59:18;2.50;;;2.30;;
40314;SDS011;26021;45.640;11.302;2023-08-06T10:01:44;1.50;;;1.40;;
40314;SDS011;26021;45.640;11.302;2023-08-06T10:04:11;2.35;;;1.48;;
40314;SDS011;26021;45.640;11.302;2023-08-06T10:06:41;1.30;;;1.20;;
40314;SDS011;26021;45.640;11.302;2023-08-06T10:09:08;2.25;;;1.60;;
40314;SDS011;26021;45.640;11.302;2023-08-06T10:11:34;2.90;;;2.60;;
40314;SDS011;26021;45.640;11.302;2023-08-06T10:14:04;2.08;;;1.60;;
40314;SDS011;26021;45.640;11.302;2023-08-06T10:16:34;2.47;;;1.25;;
40314;SDS011;26021;45.640;11.302;2023-08-06T10:19:01;1.75;;;1.35;;
40314;SDS011;26021;45.640;11.302;2023-08-06T10:21:30;2.45;;;1.40;;
40314;SDS011;26021;45.640;11.302;2023-08-06T10:23:56;2.67;;;1.80;;
40314;SDS011;26021;45.640;11.302;2023-08-06T10:26:28;2.80;;;1.75;;
40314;SDS011;26021;45.640;11.302;2023-08-06T10:28:54;1.70;;;1.40;;
40314;SDS011;26021;45.640;11.302;2023-08-06T10:31:20;1.80;;;1.42;;
40314;SDS011;26021;45.640;11.302;2023-08-06T10:34:06;2.88;;;1.40;;
40314;SDS011;26021;45.640;11.302;2023-08-06T10:36:32;2.95;;;1.35;;
40314;SDS011;26021;45.640;11.302;2023-08-06T10:38:58;2.00;;;1.50;;
40314;SDS011;26021;45.640;11.302;2023-08-06T10:41:27;1.30;;;1.20;;
40314;SDS011;26021;45.640;11.302;2023-08-06T10:44:06;2.15;;;1.88;;
40314;SDS011;26021;45.640;11.302;2023-08-06T10:46:33;3.08;;;1.70;;
40314;SDS011;26021;45.640;11.302;2023-08-06T10:48:58;7.40;;;5.32;;
40314;SDS011;26021;45.640;11.302;2023-08-06T10:51:24;1.73;;;1.63;;
40314;SDS011;26021;45.640;11.302;2023-08-06T10:53:50;2.75;;;1.40;;
40314;SDS011;26021;45.640;11.302;2023-08-06T10:58:45;2.65;;;1.98;;
40314;SDS011;26021;45.640;11.302;2023-08-06T11:01:11;2.67;;;1.70;;
40314;SDS011;26021;45.640;11.302;2023-08-06T11:03:38;2.80;;;1.77;;
40314;SDS011;26021;45.640;11.302;2023-08-06T11:06:04;2.03;;;1.85;;
40314;SDS011;26021;45.640;11.302;2023-08-06T11:08:35;2.45;;;2.10;;
40314;SDS011;26021;45.640;11.302;2023-08-06T11:11:12;2.33;;;2.17;;
40314;SDS011;26021;45.640;11.302;2023-08-06T11:13:43;8.60;;;2.25;;
40314;SDS011;26021;45.640;11.302;2023-08-06T11:16:11;2.05;;;1.85;;
40314;SDS011;26021;45.640;11.302;2023-08-06T11:18:38;2.00;;;1.52;;
40314;SDS011;26021;45.640;11.302;2023-08-06T11:21:05;3.25;;;1.98;;
40314;SDS011;26021;45.640;11.302;2023-08-06T11:23:30;2.40;;;2.20;;
40314;SDS011;26021;45.640;11.302;2023-08-06T11:25:56;3.25;;;1.75;;
40314;SDS011;26021;45.640;11.302;2023-08-06T11:28:22;2.28;;;1.85;;
40314;SDS011;26021;45.640;11.302;2023-08-06T11:30:49;4.30;;;1.90;;
40314;SDS011;26021;45.640;11.302;2023-08-06T11:33:17;5.22;;;1.95;;
40314;SDS011;26021;45.640;11.302;2023-08-06T11:35:46;2.47;;;2.28;;
40314;SDS011;26021;45.640;11.302;2023-08-06T11:38:13;4.43;;;1.90;;
40314;SDS011;26021;45.640;11.302;2023-08-06T11:40:39;2.65;;;1.88;;
40314;SDS011;26021;45.640;11.302;2023-08-06T11:43:05;2.63;;;2.22;;
40314;SDS011;26021;45.640;11.302;2023-08-06T11:45:31;2.38;;;1.92;;
40314;SDS011;26021;45.640;11.302;2023-08-06T11:47:59;5.00;;;2.25;;
40314;SDS011;26021;45.640;11.302;2023-08-06T11:50:25;3.17;;;2.35;;
40314;SDS011;26021;45.640;11.302;2023-08-06T11:52:55;2.35;;;2.03;;
40314;SDS011;26021;45.640;11.302;2023-08-06T11:55:23;3.25;;;2.20;;
40314;SDS011;26021;45.640;11.302;2023-08-06T11:57:49;1.98;;;1.80;;
40314;SDS011;26021;45.640;11.302;2023-08-06T12:00:14;2.97;;;1.83;;
40314;SDS011;26021;45.640;11.302;2023-08-06T12:02:42;1.85;;;1.75;;
40314;SDS011;26021;45.640;11.302;2023-08-06T12:05:10;3.55;;;2.30;;
40314;SDS011;26021;45.640;11.302;2023-08-06T12:07:40;2.70;;;2.22;;
40314;SDS011;26021;45.640;11.302;2023-08-06T12:10:07;2.28;;;2.08;;
40314;SDS011;26021;45.640;11.302;2023-08-06T12:12:33;2.63;;;2.40;;
40314;SDS011;26021;45.640;11.302;2023-08-06T12:14:59;2.28;;;2.17;;
40314;SDS011;26021;45.640;11.302;2023-08-06T12:17:25;3.22;;;2.10;;
40314;SDS011;26021;45.640;11.302;2023-08-06T12:19:52;3.50;;;2.35;;
40314;SDS011;26021;45.640;11.302;2023-08-06T12:22:18;3.10;;;2.80;;
40314;SDS011;26021;45.640;11.302;2023-08-06T12:24:43;3.13;;;2.28;;
40314;SDS011;26021;45.640;11.302;2023-08-06T12:27:11;3.70;;;1.63;;
40314;SDS011;26021;45.640;11.302;2023-08-06T12:29:47;2.60;;;1.60;;
40314;SDS011;26021;45.640;11.302;2023-08-06T12:32:13;3.65;;;1.50;;
40314;SDS011;26021;45.640;11.302;2023-08-06T12:34:39;1.95;;;1.00;;
40314;SDS011;26021;45.640;11.302;2023-08-06T12:37:05;1.50;;;0.95;;
40314;SDS011;26021;45.640;11.302;2023-08-06T12:39:32;2.67;;;1.02;;
40314;SDS011;26021;45.640;11.302;2023-08-06T12:41:59;1.58;;;0.90;;
40314;SDS011;26021;45.640;11.302;2023-08-06T12:44:25;2.60;;;1.58;;
40314;SDS011;26021;45.640;11.302;2023-08-06T12:46:50;1.13;;;1.00;;
40314;SDS011;26021;45.640;11.302;2023-08-06T12:49:17;2.67;;;0.93;;
40314;SDS011;26021;45.640;11.302;2023-08-06T12:51:43;1.23;;;1.13;;
40314;SDS011;26021;45.640;11.302;2023-08-06T12:54:08;1.67;;;1.10;;
40314;SDS011;26021;45.640;11.302;2023-08-06T12:56:34;1.00;;;0.90;;
40314;SDS011;26021;45.640;11.302;2023-08-06T12:58:59;0.88;;;0.88;;
40314;SDS011;26021;45.640;11.302;2023-08-06T13:01:25;0.82;;;0.65;;
40314;SDS011;26021;45.640;11.302;2023-08-06T13:03:51;1.92;;;0.70;;
40314;SDS011;26021;45.640;11.302;2023-08-06T13:06:16;0.43;;;0.43;;
40314;SDS011;26021;45.640;11.302;2023-08-06T13:08:41;0.82;;;0.82;;
40314;SDS011;26021;45.640;11.302;2023-08-06T13:11:07;0.60;;;0.60;;
40314;SDS011;26021;45.640;11.302;2023-08-06T13:13:32;1.48;;;0.73;;
40314;SDS011;26021;45.640;11.302;2023-08-06T13:15:57;5.28;;;4.05;;
40314;SDS011;26021;45.640;11.302;2023-08-06T13:18:23;0.80;;;0.80;;
40314;SDS011;26021;45.640;11.302;2023-08-06T13:20:48;0.85;;;0.70;;
40314;SDS011;26021;45.640;11.302;2023-08-06T13:23:17;1.35;;;0.80;;
40314;SDS011;26021;45.640;11.302;2023-08-06T13:25:42;0.63;;;0.63;;
40314;SDS011;26021;45.640;11.302;2023-08-06T13:28:08;0.85;;;0.60;;
40314;SDS011;26021;45.640;11.302;2023-08-06T13:30:33;0.70;;;0.70;;
40314;SDS011;26021;45.640;11.302;2023-08-06T13:33:00;0.50;;;0.50;;
40314;SDS011;26021;45.640;11.302;2023-08-06T13:35:26;0.82;;;0.77;;
40314;SDS011;26021;45.640;11.302;2023-08-06T13:37:51;0.70;;;0.70;;
40314;SDS011;26021;45.640;11.302;2023-08-06T13:40:18;1.60;;;0.60;;
40314;SDS011;26021;45.640;11.302;2023-08-06T13:42:43;0.88;;;0.88;;
40314;SDS011;26021;45.640;11.302;2023-08-06T13:45:09;0.73;;;0.60;;
40314;SDS011;26021;45.640;11.302;2023-08-06T13:47:34;0.63;;;0.55;;
40314;SDS011;26021;45.640;11.302;2023-08-06T13:50:00;0.60;;;0.60;;
40314;SDS011;26021;45.640;11.302;2023-08-06T13:52:27;0.60;;;0.60;;
40314;SDS011;26021;45.640;11.302;2023-08-06T13:54:52;2.50;;;0.45;;
40314;SDS011;26021;45.640;11.302;2023-08-06T13:57:17;0.80;;;0.75;;
40314;SDS011;26021;45.640;11.302;2023-08-06T13:59:43;0.82;;;0.82;;
40314;SDS011;26021;45.640;11.302;2023-08-06T14:02:09;0.70;;;0.70;;
40314;SDS011;26021;45.640;11.302;2023-08-06T14:04:35;0.80;;;0.80;;
40314;SDS011;26021;45.640;11.302;2023-08-06T14:07:00;3.17;;;0.70;;
40314;SDS011;26021;45.640;11.302;2023-08-06T14:09:26;1.00;;;1.00;;
40314;SDS011;26021;45.640;11.302;2023-08-06T14:11:51;2.65;;;1.10;;
40314;SDS011;26021;45.640;11.302;2023-08-06T14:14:17;2.35;;;1.50;;
40314;SDS011;26021;45.640;11.302;2023-08-06T14:16:42;1.30;;;1.10;;
40314;SDS011;26021;45.640;11.302;2023-08-06T14:19:07;4.35;;;1.65;;
40314;SDS011;26021;45.640;11.302;2023-08-06T14:21:33;13.80;;;3.47;;
40314;SDS011;26021;45.640;11.302;2023-08-06T14:23:58;7.13;;;2.33;;
40314;SDS011;26021;45.640;11.302;2023-08-06T14:26:24;4.63;;;1.92;;
40314;SDS011;26021;45.640;11.302;2023-08-06T14:28:49;3.58;;;1.80;;
40314;SDS011;26021;45.640;11.302;2023-08-06T14:31:19;6.03;;;2.38;;
40314;SDS011;26021;45.640;11.302;2023-08-06T14:33:44;3.20;;;1.95;;
40314;SDS011;26021;45.640;11.302;2023-08-06T14:36:10;3.38;;;2.00;;
40314;SDS011;26021;45.640;11.302;2023-08-06T14:38:35;5.80;;;2.00;;